Time;durP1;ratioP1;P1;durP2;ratioP2;P2;SDS_P1;SDS_P2;PMS_P1;PMS_P2;Temp;Humidity;BMP_temperature;BMP_pressure;BME280_temperature;BME280_humidity;BME280_pressure;Samples;Min_cycle;Max_cycle;Signal;HPM_P1;HPM_P2
2023/12/08 00:00:26;;;;;;;50.83;20.20;;;;;;;1.68;100.00;101272.88;5042894;28;20195;-74
2023/12/08 00:02:54;;;;;;;52.30;21.53;;;;;;;1.69;100.00;101268.44;5043784;28;20555;-74
2023/12/08 00:05:20;;;;;;;57.90;21.17;;;;;;;1.69;100.00;101276.25;5043997;28;20198;-74
2023/12/08 00:07:47;;;;;;;50.67;19.17;;;;;;;1.69;100.00;101277.03;5041976;28;20556;-74
2023/12/08 00:10:13;;;;;;;47.47;19.70;;;;;;;1.70;100.00;101267.41;5043278;28;20578;-74
2023/12/08 00:12:40;;;;;;;51.33;20.13;;;;;;;1.69;100.00;101264.03;5042661;28;20195;-74
2023/12/08 00:15:07;;;;;;;51.83;21.93;;;;;;;1.71;100.00;101261.19;5040081;28;20200;-74
2023/12/08 00:17:33;;;;;;;53.03;19.13;;;;;;;1.71;100.00;101261.19;5044512;28;20215;-74
2023/12/08 00:20:02;;;;;;;50.60;20.30;;;;;;;1.70;100.00;101247.38;5042505;28;20567;-74
2023/12/08 00:22:28;;;;;;;57.67;21.63;;;;;;;1.71;100.00;101241.13;5042747;28;20505;-74
2023/12/08 00:24:54;;;;;;;52.33;20.63;;;;;;;1.71;100.00;101235.16;5045512;28;20210;-74
2023/12/08 00:27:21;;;;;;;48.57;21.57;;;;;;;1.71;100.00;101227.34;5042586;28;20219;-74
2023/12/08 00:29:47;;;;;;;57.57;20.50;;;;;;;1.72;100.00;101228.91;5041978;28;20317;-74
2023/12/08 00:32:13;;;;;;;47.90;20.50;;;;;;;1.72;100.00;101231.50;5044790;28;20210;-73
2023/12/08 00:34:40;;;;;;;48.33;19.63;;;;;;;1.72;100.00;101227.06;5040042;28;20203;-74
2023/12/08 00:37:08;;;;;;;52.90;19.97;;;;;;;1.71;100.00;101227.34;5038856;28;20310;-74
2023/12/08 00:39:34;;;;;;;48.17;19.20;;;;;;;1.72;100.00;101221.88;5043131;28;20574;-74
2023/12/08 00:42:01;;;;;;;48.17;21.27;;;;;;;1.71;100.00;101219.53;5041605;28;20204;-74
2023/12/08 00:44:27;;;;;;;49.53;21.30;;;;;;;1.71;100.00;101217.69;5041630;28;20274;-74
2023/12/08 00:46:53;;;;;;;49.97;20.00;;;;;;;1.70;100.00;101213.53;5040006;28;20212;-74
2023/12/08 00:49:20;;;;;;;51.97;21.27;;;;;;;1.70;100.00;101208.31;5047527;28;20195;-74
2023/12/08 00:51:47;;;;;;;48.67;20.63;;;;;;;1.69;100.00;101204.16;5042924;28;20200;-74
2023/12/08 00:54:15;;;;;;;48.83;20.93;;;;;;;1.70;100.00;101207.53;5037173;28;20322;-74
2023/12/08 00:56:42;;;;;;;48.67;20.80;;;;;;;1.70;100.00;101202.31;5038038;28;20207;-74
2023/12/08 00:59:08;;;;;;;49.50;19.40;;;;;;;1.70;100.00;101210.94;5045673;28;20278;-74
2023/12/08 01:01:34;;;;;;;48.37;20.73;;;;;;;1.70;100.00;101205.72;5034901;28;20192;-74
2023/12/08 01:04:01;;;;;;;44.73;19.90;;;;;;;1.70;100.00;101205.72;5038975;28;20222;-74
2023/12/08 01:06:27;;;;;;;50.17;19.33;;;;;;;1.70;100.00;101208.31;5041653;28;20190;-74
2023/12/08 01:08:53;;;;;;;52.73;20.70;;;;;;;1.70;100.00;101204.94;5038086;28;20223;-74
2023/12/08 01:11:21;;;;;;;48.17;19.80;;;;;;;1.69;100.00;101204.16;5037707;28;20278;-74
2023/12/08 01:13:48;;;;;;;47.70;19.63;;;;;;;1.70;100.00;101204.94;5037563;28;20204;-74
2023/12/08 01:16:14;;;;;;;51.17;21.33;;;;;;;1.70;100.00;101210.94;5041543;28;20591;-74
2023/12/08 01:18:40;;;;;;;48.00;20.33;;;;;;;1.69;100.00;101204.16;5036651;28;20698;-74
2023/12/08 01:21:07;;;;;;;49.50;20.83;;;;;;;1.69;100.00;101190.34;5041254;28;20202;-74
2023/12/08 01:23:33;;;;;;;51.93;20.23;;;;;;;1.69;100.00;101187.75;5042832;28;20230;-73
2023/12/08 01:26:00;;;;;;;49.67;22.20;;;;;;;1.68;100.00;101186.97;5040207;28;20199;-74
2023/12/08 01:28:27;;;;;;;45.27;19.63;;;;;;;1.68;100.00;101189.59;5040386;28;20211;-74
2023/12/08 01:30:54;;;;;;;43.93;19.73;;;;;;;1.69;100.00;101187.75;5041421;28;20584;-74
2023/12/08 01:33:21;;;;;;;47.00;20.43;;;;;;;1.69;100.00;101188.53;5037347;28;20606;-74
2023/12/08 01:35:48;;;;;;;47.97;20.97;;;;;;;1.69;100.00;101183.34;5044449;28;20219;-74
2023/12/08 01:38:14;;;;;;;47.50;20.63;;;;;;;1.68;100.00;101186.19;5037507;28;20310;-74
2023/12/08 01:40:41;;;;;;;48.63;20.77;;;;;;;1.69;100.00;101185.16;5042265;28;20195;-74
2023/12/08 01:43:10;;;;;;;46.57;20.80;;;;;;;1.68;100.00;101186.19;5042812;28;20235;-74
2023/12/08 01:45:39;;;;;;;46.60;19.80;;;;;;;1.68;100.00;101186.19;5044000;28;20203;-74
2023/12/08 01:48:06;;;;;;;44.97;20.50;;;;;;;1.68;100.00;101178.38;5042967;28;20218;-74
2023/12/08 01:50:33;;;;;;;43.53;19.30;;;;;;;1.69;100.00;101179.94;5047317;28;20207;-74
2023/12/08 01:53:01;;;;;;;50.43;20.50;;;;;;;1.68;100.00;101168.75;5043375;28;20651;-74
2023/12/08 01:55:27;;;;;;;48.37;20.37;;;;;;;1.68;100.00;101167.97;5043199;28;20303;-74
2023/12/08 01:57:54;;;;;;;48.27;21.03;;;;;;;1.68;100.00;101171.38;5042692;28;20230;-74
2023/12/08 02:00:20;;;;;;;45.87;20.37;;;;;;;1.68;100.00;101160.94;5042844;28;20192;-74
2023/12/08 02:02:49;;;;;;;48.50;21.40;;;;;;;1.68;100.00;101162.75;5048212;28;20206;-73
2023/12/08 02:05:17;;;;;;;52.27;20.87;;;;;;;1.68;100.00;101145.34;5037692;28;20287;-74
2023/12/08 02:07:44;;;;;;;46.97;20.00;;;;;;;1.68;100.00;101153.16;5046138;28;20733;-73
2023/12/08 02:10:11;;;;;;;49.70;21.60;;;;;;;1.68;100.00;101163.56;5044344;28;20671;-75
2023/12/08 02:12:37;;;;;;;54.33;21.17;;;;;;;1.69;100.00;101156.50;5044047;28;20570;-74
2023/12/08 02:15:04;;;;;;;52.00;20.50;;;;;;;1.69;100.00;101149.50;5047880;28;20214;-74
2023/12/08 02:17:34;;;;;;;52.37;20.37;;;;;;;1.69;100.00;101148.69;5038952;28;20215;-74
2023/12/08 02:20:03;;;;;;;50.40;20.17;;;;;;;1.68;100.00;101145.34;5045431;28;20283;-74
2023/12/08 02:22:29;;;;;;;52.33;20.93;;;;;;;1.68;100.00;101145.34;5045262;28;20238;-74
2023/12/08 02:24:57;;;;;;;51.87;20.83;;;;;;;1.69;100.00;101141.69;5042377;28;20195;-74
2023/12/08 02:27:23;;;;;;;60.03;21.27;;;;;;;1.68;100.00;101144.53;5042128;28;20215;-74
2023/12/08 02:29:50;;;;;;;48.33;20.47;;;;;;;1.66;100.00;101147.38;5043089;28;20216;-74
2023/12/08 02:32:23;;;;;;;48.80;20.47;;;;;;;1.67;100.00;101129.97;5040272;28;20197;-74
2023/12/08 02:34:52;;;;;;;54.80;19.73;;;;;;;1.67;100.00;101119.56;5043986;28;20199;-74
2023/12/08 02:37:21;;;;;;;49.03;19.77;;;;;;;1.68;100.00;101131.53;5045665;28;20227;-73
2023/12/08 02:39:48;;;;;;;49.10;20.33;;;;;;;1.68;100.00;101118.50;5044402;28;20219;-74
2023/12/08 02:42:17;;;;;;;52.03;20.47;;;;;;;1.67;100.00;101114.34;5044924;28;20195;-74
2023/12/08 02:44:44;;;;;;;54.37;20.93;;;;;;;1.67;100.00;101111.75;5045230;28;20208;-74
2023/12/08 02:47:11;;;;;;;53.83;22.00;;;;;;;1.67;100.00;101111.75;5043042;28;20212;-74
2023/12/08 02:49:37;;;;;;;61.27;22.30;;;;;;;1.67;100.00;101115.09;5039973;28;20714;-74
2023/12/08 02:52:04;;;;;;;52.40;22.07;;;;;;;1.66;100.00;101112.78;5044404;28;20461;-74
2023/12/08 02:54:30;;;;;;;47.53;19.80;;;;;;;1.66;100.00;101100.53;5042933;28;20203;-73
2023/12/08 02:56:57;;;;;;;53.30;22.13;;;;;;;1.67;100.00;101099.50;5039263;28;20226;-74
2023/12/08 02:59:24;;;;;;;53.90;22.67;;;;;;;1.67;100.00;101096.88;5045453;28;20203;-74
2023/12/08 03:01:50;;;;;;;52.03;21.80;;;;;;;1.67;100.00;101104.69;5047896;28;20196;-74
2023/12/08 03:04:17;;;;;;;58.90;23.83;;;;;;;1.66;100.00;101099.78;5042282;28;20196;-74
2023/12/08 03:06:43;;;;;;;53.40;23.17;;;;;;;1.66;100.00;101097.94;5045767;28;20204;-74
2023/12/08 03:09:10;;;;;;;55.97;21.90;;;;;;;1.67;100.00;101099.50;5039480;28;20222;-74
2023/12/08 03:11:36;;;;;;;57.37;23.70;;;;;;;1.66;100.00;101097.94;5043152;28;20225;-74
2023/12/08 03:14:03;;;;;;;57.07;22.73;;;;;;;1.67;100.00;101102.09;5045909;28;20204;-74
2023/12/08 03:16:30;;;;;;;50.87;21.90;;;;;;;1.67;100.00;101096.88;5047074;28;20203;-74
2023/12/08 03:18:57;;;;;;;49.13;21.27;;;;;;;1.67;100.00;101086.47;5045758;28;20222;-74
2023/12/08 03:21:23;;;;;;;59.77;23.80;;;;;;;1.68;100.00;101089.88;5042985;28;20204;-74
2023/12/08 03:23:50;;;;;;;51.00;21.93;;;;;;;1.69;100.00;101094.03;5044516;28;20196;-74
2023/12/08 03:26:17;;;;;;;53.87;22.87;;;;;;;1.69;100.00;101083.63;5041882;28;20207;-74
2023/12/08 03:28:43;;;;;;;53.60;21.97;;;;;;;1.67;100.00;101083.13;5043166;28;20215;-74
2023/12/08 03:31:20;;;;;;;56.43;22.70;;;;;;;1.68;100.00;101082.88;5041113;28;20203;-74
2023/12/08 03:33:47;;;;;;;48.33;21.87;;;;;;;1.68;100.00;101074.25;5040912;28;20210;-73
2023/12/08 03:36:14;;;;;;;58.80;22.77;;;;;;;1.68;100.00;101082.06;5047396;28;20203;-74
2023/12/08 03:38:40;;;;;;;55.57;22.80;;;;;;;1.68;100.00;101085.47;5042174;28;20618;-74
2023/12/08 03:41:06;;;;;;;53.97;22.90;;;;;;;1.67;100.00;101080.50;5041498;28;20211;-74
2023/12/08 03:43:33;;;;;;;47.97;20.87;;;;;;;1.67;100.00;101083.88;5045880;28;20207;-74
2023/12/08 03:45:59;;;;;;;49.27;21.30;;;;;;;1.68;100.00;101071.66;5045745;28;20205;-74
2023/12/08 03:48:25;;;;;;;55.17;23.87;;;;;;;1.67;100.00;101072.69;5038059;28;20632;-74
2023/12/08 03:50:53;;;;;;;48.00;22.73;;;;;;;1.67;100.00;101073.47;5045513;28;20199;-74
2023/12/08 03:53:19;;;;;;;50.97;22.10;;;;;;;1.67;100.00;101068.25;5041167;28;20195;-74
2023/12/08 03:55:46;;;;;;;49.30;22.13;;;;;;;1.67;100.00;101076.06;5038651;28;20211;-74
2023/12/08 03:58:12;;;;;;;44.07;20.73;;;;;;;1.67;100.00;101073.47;5044787;28;20718;-74
2023/12/08 04:00:39;;;;;;;52.07;21.97;;;;;;;1.67;100.00;101050.03;5044626;28;20194;-74
2023/12/08 04:03:05;;;;;;;54.47;23.40;;;;;;;1.66;100.00;101052.91;5044256;28;20540;-74
2023/12/08 04:05:31;;;;;;;47.40;20.90;;;;;;;1.66;100.00;101040.66;5037924;28;20203;-75
2023/12/08 04:07:59;;;;;;;49.00;22.33;;;;;;;1.66;100.00;101039.91;5040202;28;20298;-73
2023/12/08 04:10:25;;;;;;;52.30;21.23;;;;;;;1.67;100.00;101055.25;5047769;28;20213;-75
2023/12/08 04:12:52;;;;;;;48.53;22.13;;;;;;;1.68;100.00;101048.22;5044558;28;20211;-74
2023/12/08 04:15:18;;;;;;;52.53;21.67;;;;;;;1.68;100.00;101046.41;5050398;28;20192;-74
2023/12/08 04:17:44;;;;;;;46.70;21.30;;;;;;;1.68;100.00;101048.22;5044621;28;20226;-74
2023/12/08 04:20:11;;;;;;;48.50;21.57;;;;;;;1.68;100.00;101049.03;5050024;28;20213;-74
2023/12/08 04:22:37;;;;;;;45.77;20.50;;;;;;;1.64;100.00;101040.16;5059589;28;20210;-74
2023/12/08 04:25:06;;;;;;;42.53;20.77;;;;;;;1.63;100.00;101043.00;5042366;28;20206;-74
2023/12/08 04:27:33;;;;;;;47.53;20.73;;;;;;;1.56;100.00;101032.06;5047513;28;20215;-73
2023/12/08 04:29:59;;;;;;;47.87;20.67;;;;;;;1.49;100.00;101021.88;5043181;28;20464;-74
2023/12/08 04:32:25;;;;;;;43.53;19.93;;;;;;;1.43;100.00;101022.09;5044579;28;20625;-74
2023/12/08 04:34:52;;;;;;;38.17;20.03;;;;;;;1.33;100.00;101019.47;5044080;28;20207;-74
2023/12/08 04:37:18;;;;;;;45.37;21.23;;;;;;;1.26;100.00;101014.47;5045818;28;20440;-74
2023/12/08 04:39:44;;;;;;;43.60;19.77;;;;;;;1.17;100.00;101018.63;5043841;28;20196;-73
2023/12/08 04:42:12;;;;;;;40.07;19.20;;;;;;;1.09;100.00;101008.69;5041743;28;20200;-74
2023/12/08 04:44:38;;;;;;;45.47;20.13;;;;;;;1.01;100.00;100997.97;5046972;28;20191;-74
2023/12/08 04:47:05;;;;;;;43.03;20.77;;;;;;;0.93;100.00;101012.25;5050154;28;20657;-74
2023/12/08 04:49:31;;;;;;;41.57;19.17;;;;;;;0.87;100.00;101000.25;5045309;28;20188;-73
2023/12/08 04:51:57;;;;;;;43.67;18.47;;;;;;;0.80;100.00;100991.09;5039619;28;20207;-73
2023/12/08 04:54:24;;;;;;;39.17;18.77;;;;;;;0.74;100.00;100994.72;5045655;28;20198;-73
2023/12/08 04:56:50;;;;;;;37.50;18.63;;;;;;;0.68;100.00;100986.09;5043368;28;20687;-74
2023/12/08 04:59:17;;;;;;;39.87;18.73;;;;;;;0.63;100.00;100987.88;5046334;28;20220;-74
2023/12/08 05:01:44;;;;;;;37.83;18.60;;;;;;;0.57;100.00;100981.09;5039821;28;20200;-74
2023/12/08 05:04:10;;;;;;;38.43;18.73;;;;;;;0.51;100.00;100972.47;5043277;28;20199;-74
2023/12/08 05:06:37;;;;;;;38.47;18.63;;;;;;;0.45;100.00;100973.47;5042319;28;20204;-74
2023/12/08 05:09:03;;;;;;;37.13;17.37;;;;;;;0.39;100.00;100991.84;5042284;28;20670;-74
2023/12/08 05:11:29;;;;;;;39.00;17.37;;;;;;;0.34;100.00;100997.00;5045908;28;20215;-74
2023/12/08 05:13:56;;;;;;;38.97;18.50;;;;;;;0.27;100.00;100978.25;5046362;28;20203;-74
2023/12/08 05:16:23;;;;;;;37.13;17.83;;;;;;;0.23;100.00;100972.78;5040924;28;20195;-74
2023/12/08 05:18:50;;;;;;;39.33;19.20;;;;;;;0.19;100.00;100981.31;5047401;28;20315;-73
2023/12/08 05:21:16;;;;;;;41.53;19.03;;;;;;;0.14;100.00;100982.06;5045054;28;20566;-73
2023/12/08 05:23:41;;;;;;;38.30;17.43;;;;;;;0.11;100.00;100971.38;5042090;28;20199;-74
2023/12/08 05:26:08;;;;;;;39.27;17.50;;;;;;;0.07;100.00;100976.25;5045946;28;20210;-74
2023/12/08 05:28:35;;;;;;;38.20;18.17;;;;;;;0.02;100.00;100981.41;5055406;28;20306;-73
2023/12/08 05:31:01;;;;;;;35.47;18.03;;;;;;;0.00;100.00;100972.31;5046615;28;20203;-73
2023/12/08 05:33:29;;;;;;;38.50;18.13;;;;;;;-0.04;100.00;100972.00;5051295;28;20206;-74
2023/12/08 05:35:56;;;;;;;33.13;16.60;;;;;;;-0.07;100.00;100979.50;5047905;28;20230;-73
2023/12/08 05:38:22;;;;;;;37.30;17.60;;;;;;;-0.10;100.00;100982.63;5052480;28;20242;-73
2023/12/08 05:40:49;;;;;;;35.20;17.10;;;;;;;-0.15;100.00;100967.75;5044630;28;20658;-73
2023/12/08 05:43:15;;;;;;;32.90;17.47;;;;;;;-0.18;100.00;100967.47;5051787;28;20203;-74
2023/12/08 05:45:42;;;;;;;29.30;16.00;;;;;;;-0.21;100.00;100980.91;5042807;28;20199;-73
2023/12/08 05:48:08;;;;;;;32.50;16.97;;;;;;;-0.25;100.00;100982.47;5049901;28;20251;-72
2023/12/08 05:50:36;;;;;;;33.20;17.00;;;;;;;-0.28;100.00;100996.69;5045870;28;20203;-73
2023/12/08 05:53:02;;;;;;;37.43;17.67;;;;;;;-0.32;100.00;100990.44;5047521;28;20207;-74
2023/12/08 05:55:28;;;;;;;36.57;16.67;;;;;;;-0.36;100.00;100984.16;5048835;28;20195;-73
2023/12/08 05:57:55;;;;;;;36.17;17.57;;;;;;;-0.37;100.00;100992.16;5049223;28;20721;-73
2023/12/08 06:00:21;;;;;;;37.13;17.57;;;;;;;-0.38;100.00;100995.03;5050766;28;20205;-73
2023/12/08 06:02:47;;;;;;;37.00;17.83;;;;;;;-0.40;100.00;100997.88;5045409;28;20211;-73
2023/12/08 06:05:15;;;;;;;38.17;16.93;;;;;;;-0.42;100.00;100995.50;5052431;28;20209;-73
2023/12/08 06:07:42;;;;;;;38.50;19.10;;;;;;;-0.45;100.00;100990.78;5049994;28;20219;-73
2023/12/08 06:10:11;;;;;;;35.13;16.80;;;;;;;-0.46;100.00;100993.66;5046793;28;20210;-73
2023/12/08 06:12:38;;;;;;;35.60;18.23;;;;;;;-0.47;100.00;100997.25;5043536;28;20225;-73
2023/12/08 06:15:06;;;;;;;38.07;17.20;;;;;;;-0.50;100.00;100988.13;5047118;28;20670;-73
2023/12/08 06:17:32;;;;;;;36.20;17.17;;;;;;;-0.53;100.00;100985.25;5043709;28;20211;-73
2023/12/08 06:19:59;;;;;;;38.23;18.53;;;;;;;-0.53;100.00;100992.28;5045782;28;20219;-73
2023/12/08 06:22:25;;;;;;;44.00;19.70;;;;;;;-0.55;100.00;100992.50;5045964;28;20577;-73
2023/12/08 06:24:53;;;;;;;38.13;19.13;;;;;;;-0.56;100.00;100985.75;5043729;28;20203;-73
2023/12/08 06:27:19;;;;;;;41.03;19.60;;;;;;;-0.57;100.00;100993.78;5045271;28;20217;-73
2023/12/08 06:29:46;;;;;;;40.00;18.43;;;;;;;-0.57;100.00;100996.38;5045313;28;20195;-73
2023/12/08 06:32:12;;;;;;;38.87;19.03;;;;;;;-0.60;100.00;100980.25;5042686;28;20199;-73
2023/12/08 06:34:39;;;;;;;39.97;19.07;;;;;;;-0.62;100.00;100977.13;5043338;28;20191;-73
2023/12/08 06:37:05;;;;;;;38.70;19.67;;;;;;;-0.60;100.00;100969.88;5049512;28;20313;-73
2023/12/08 06:39:31;;;;;;;42.37;18.87;;;;;;;-0.60;100.00;100969.88;5052948;28;20222;-73
2023/12/08 06:41:59;;;;;;;41.27;18.97;;;;;;;-0.63;100.00;100970.38;5048531;28;20204;-73
2023/12/08 06:44:25;;;;;;;48.17;20.30;;;;;;;-0.63;100.00;100970.38;5052463;28;20207;-73
2023/12/08 06:46:52;;;;;;;44.13;19.13;;;;;;;-0.62;100.00;100965.97;5043716;28;20568;-73
2023/12/08 06:49:18;;;;;;;45.13;20.17;;;;;;;-0.63;100.00;100971.41;5036667;28;20199;-73
2023/12/08 06:51:45;;;;;;;45.57;20.37;;;;;;;-0.65;100.00;100966.47;5045815;28;20203;-73
2023/12/08 06:54:11;;;;;;;44.33;19.53;;;;;;;-0.66;100.00;100957.13;5045146;28;20195;-73
2023/12/08 06:56:41;;;;;;;42.33;19.33;;;;;;;-0.64;100.00;100956.88;5047355;28;20226;-73
2023/12/08 06:59:09;;;;;;;41.47;18.73;;;;;;;-0.66;100.00;100965.66;5046280;28;20203;-73
2023/12/08 07:01:35;;;;;;;42.90;19.27;;;;;;;-0.67;100.00;100966.69;5046244;28;20207;-73
2023/12/08 07:04:03;;;;;;;39.10;19.23;;;;;;;-0.68;100.00;100968.75;5047298;28;20202;-72
2023/12/08 07:06:29;;;;;;;42.83;18.90;;;;;;;-0.69;100.00;100962.78;5049642;28;20190;-73
2023/12/08 07:08:56;;;;;;;45.50;20.57;;;;;;;-0.72;100.00;100963.28;5051127;28;20215;-73
2023/12/08 07:11:22;;;;;;;43.20;19.20;;;;;;;-0.74;100.00;100956.75;5044309;28;20199;-73
2023/12/08 07:13:49;;;;;;;42.17;18.80;;;;;;;-0.75;100.00;100966.34;5053947;28;20221;-73
2023/12/08 07:16:16;;;;;;;39.50;18.57;;;;;;;-0.74;100.00;100964.53;5053119;28;20199;-73
2023/12/08 07:18:43;;;;;;;42.07;19.00;;;;;;;-0.74;100.00;100956.75;5050264;28;20207;-73
2023/12/08 07:21:09;;;;;;;41.27;18.17;;;;;;;-0.75;100.00;100953.38;5051312;28;20199;-73
2023/12/08 07:23:35;;;;;;;41.37;19.07;;;;;;;-0.74;100.00;100948.97;5047741;28;20199;-73
2023/12/08 07:26:03;;;;;;;43.87;19.10;;;;;;;-0.74;100.00;100956.75;5044855;28;20652;-73
2023/12/08 07:28:29;;;;;;;80.80;30.97;;;;;;;-0.73;100.00;100956.50;5046152;28;20218;-73
2023/12/08 07:30:56;;;;;;;44.73;20.50;;;;;;;-0.71;100.00;100967.44;5049655;28;20202;-73
2023/12/08 07:33:24;;;;;;;48.47;21.70;;;;;;;-0.72;100.00;100958.84;5048743;28;20632;-73
2023/12/08 07:35:51;;;;;;;56.93;25.47;;;;;;;-0.68;100.00;100960.97;5047577;28;20693;-73
2023/12/08 07:38:18;;;;;;;46.13;21.80;;;;;;;-0.67;100.00;100947.78;5047499;28;20215;-73
2023/12/08 07:40:45;;;;;;;47.20;20.37;;;;;;;-0.66;100.00;100963.06;5049817;28;20190;-73
2023/12/08 07:43:11;;;;;;;49.60;21.00;;;;;;;-0.64;100.00;100965.41;5045121;28;20192;-73
2023/12/08 07:45:38;;;;;;;45.93;19.90;;;;;;;-0.63;100.00;100964.38;5043966;28;20211;-73
2023/12/08 07:48:05;;;;;;;50.73;22.53;;;;;;;-0.62;100.00;100961.56;5048674;28;20222;-73
2023/12/08 07:50:32;;;;;;;53.37;22.80;;;;;;;-0.61;100.00;100955.34;5052231;28;20633;-73
2023/12/08 07:52:59;;;;;;;58.77;23.23;;;;;;;-0.59;100.00;100962.88;5045933;28;21644;-73
2023/12/08 07:55:26;;;;;;;50.27;22.63;;;;;;;-0.60;100.00;100956.13;5047151;28;20688;-72
2023/12/08 07:57:53;;;;;;;52.33;23.97;;;;;;;-0.58;100.00;100958.50;5041073;28;20223;-73
2023/12/08 08:00:21;;;;;;;49.23;22.13;;;;;;;-0.58;100.00;100956.66;5050735;28;20212;-73
2023/12/08 08:02:47;;;;;;;53.07;23.20;;;;;;;-0.58;100.00;100953.31;5048610;28;20204;-73
2023/12/08 08:05:13;;;;;;;55.27;25.00;;;;;;;-0.58;100.00;100938.50;5041411;28;20717;-73
2023/12/08 08:07:42;;;;;;;54.83;22.10;;;;;;;-0.58;100.00;100940.34;5049391;28;20226;-73
2023/12/08 08:10:08;;;;;;;50.77;22.63;;;;;;;-0.58;100.00;100928.16;5050324;28;20233;-73
2023/12/08 08:12:35;;;;;;;60.20;24.50;;;;;;;-0.58;100.00;100925.56;5048730;28;20199;-73
2023/12/08 08:15:01;;;;;;;54.83;23.67;;;;;;;-0.56;100.00;100926.88;5049958;28;20756;-73
2023/12/08 08:17:27;;;;;;;53.13;23.53;;;;;;;-0.57;100.00;100919.34;5045306;28;20231;-73
2023/12/08 08:19:54;;;;;;;53.83;22.97;;;;;;;-0.57;100.00;100919.34;5046157;28;20221;-73
2023/12/08 08:22:20;;;;;;;54.33;23.03;;;;;;;-0.58;100.00;100912.59;5045534;28;20219;-73
2023/12/08 08:24:48;;;;;;;54.93;23.50;;;;;;;-0.58;100.00;100909.22;5047702;28;20203;-73
2023/12/08 08:27:14;;;;;;;56.63;23.63;;;;;;;-0.58;100.00;100917.00;5045530;28;20225;-73
2023/12/08 08:29:40;;;;;;;52.63;23.80;;;;;;;-0.57;100.00;100911.56;5045522;28;20732;-73
2023/12/08 08:32:07;;;;;;;59.33;24.10;;;;;;;-0.57;100.00;100908.97;5045896;28;20196;-73
2023/12/08 08:34:33;;;;;;;53.83;23.60;;;;;;;-0.58;100.00;100904.81;5049126;28;20207;-73
2023/12/08 08:37:00;;;;;;;57.80;23.23;;;;;;;-0.58;100.00;100912.59;5044107;28;20219;-73
2023/12/08 08:39:26;;;;;;;52.50;22.87;;;;;;;-0.57;100.00;100906.38;5047559;28;20728;-73
2023/12/08 08:41:54;;;;;;;58.93;25.03;;;;;;;-0.57;100.00;100905.59;5050476;28;20206;-73
2023/12/08 08:44:22;;;;;;;51.20;22.83;;;;;;;-0.59;100.00;100898.06;5048894;28;20558;-73
2023/12/08 08:46:49;;;;;;;53.93;23.20;;;;;;;-0.56;100.00;100905.38;5049663;28;20210;-73
2023/12/08 08:49:15;;;;;;;55.67;23.90;;;;;;;-0.57;100.00;100896.00;5047683;28;20202;-73
2023/12/08 08:51:43;;;;;;;52.63;22.53;;;;;;;-0.55;100.00;100901.75;5052162;28;20199;-73
2023/12/08 08:54:09;;;;;;;59.17;22.80;;;;;;;-0.54;100.00;100905.88;5050839;28;20191;-73
2023/12/08 08:56:36;;;;;;;57.83;24.50;;;;;;;-0.53;100.00;100910.03;5050627;28;20195;-73
2023/12/08 08:59:04;;;;;;;60.77;27.43;;;;;;;-0.51;100.00;100915.78;5051258;28;20214;-73
2023/12/08 09:01:30;;;;;;;57.27;25.03;;;;;;;-0.51;100.00;100911.38;5051619;28;20188;-73
2023/12/08 09:03:56;;;;;;;66.27;29.77;;;;;;;-0.47;100.00;100921.25;5052701;28;20218;-73
2023/12/08 09:06:24;;;;;;;72.50;31.30;;;;;;;-0.46;100.00;100915.84;5048243;28;20207;-73
2023/12/08 09:08:50;;;;;;;112.23;45.40;;;;;;;-0.44;100.00;100911.19;5047158;28;20760;-73
2023/12/08 09:11:17;;;;;;;71.70;28.17;;;;;;;-0.41;100.00;100908.09;5045608;28;20187;-73
2023/12/08 09:13:43;;;;;;;63.37;27.50;;;;;;;-0.38;100.00;100909.44;5051953;28;20203;-73
2023/12/08 09:16:11;;;;;;;64.30;27.20;;;;;;;-0.37;100.00;100902.16;5054128;28;20198;-73
2023/12/08 09:18:37;;;;;;;76.63;33.30;;;;;;;-0.34;100.00;100903.50;5053295;28;20214;-73
2023/12/08 09:21:05;;;;;;;68.70;29.03;;;;;;;-0.32;100.00;100899.63;5051269;28;20559;-73
2023/12/08 09:23:31;;;;;;;67.80;28.80;;;;;;;-0.30;100.00;100902.75;5045714;28;20192;-73
2023/12/08 09:25:59;;;;;;;63.33;26.10;;;;;;;-0.27;100.00;100904.06;5048116;28;20276;-73
2023/12/08 09:28:25;;;;;;;65.80;27.10;;;;;;;-0.24;100.00;100904.34;5049370;28;20243;-73
2023/12/08 09:30:52;;;;;;;62.83;26.17;;;;;;;-0.21;100.00;100910.84;5051723;28;20716;-73
2023/12/08 09:33:19;;;;;;;61.70;25.70;;;;;;;-0.19;100.00;100907.00;5046532;28;20548;-73
2023/12/08 09:35:46;;;;;;;56.03;23.27;;;;;;;-0.16;100.00;100905.72;5049943;28;20210;-73
2023/12/08 09:38:13;;;;;;;54.70;24.00;;;;;;;-0.12;100.00;100899.00;5045475;28;20222;-73
2023/12/08 09:40:42;;;;;;;60.93;24.83;;;;;;;-0.08;100.00;100900.88;5045879;28;20234;-73
2023/12/08 09:43:16;;;;;;;56.70;24.87;;;;;;;-0.04;100.00;100898.56;5044933;28;20199;-73
2023/12/08 09:45:45;;;;;;;59.40;24.57;;;;;;;0.01;100.00;100901.22;5044027;28;20546;-73
2023/12/08 09:48:12;;;;;;;64.57;25.37;;;;;;;0.04;100.00;100898.88;5050996;28;20218;-73
2023/12/08 09:50:41;;;;;;;67.83;26.20;;;;;;;0.09;100.00;100898.13;5046922;28;20570;-73
2023/12/08 09:53:08;;;;;;;62.90;25.67;;;;;;;0.11;100.00;100901.28;5046380;28;20558;-73
2023/12/08 09:55:37;;;;;;;56.53;24.63;;;;;;;0.14;100.00;100893.78;5049948;28;20222;-74
2023/12/08 09:58:04;;;;;;;68.10;26.10;;;;;;;0.18;100.00;100896.66;5049451;28;20449;-74
2023/12/08 10:00:32;;;;;;;69.93;27.80;;;;;;;0.22;100.00;100895.88;5047466;28;20222;-73
2023/12/08 10:02:59;;;;;;;64.40;26.90;;;;;;;0.25;100.00;100892.00;5050517;28;20826;-74
2023/12/08 10:05:27;;;;;;;65.40;25.73;;;;;;;0.27;100.00;100890.72;5048804;28;20662;-74
2023/12/08 10:07:56;;;;;;;72.10;27.07;;;;;;;0.29;100.00;100882.69;5049175;28;20216;-73
2023/12/08 10:10:24;;;;;;;71.23;29.97;;;;;;;0.31;100.00;100873.63;5037742;28;20679;-73
2023/12/08 10:12:50;;;;;;;63.07;25.57;;;;;;;0.34;100.00;100867.16;5040713;28;20196;-72
2023/12/08 10:15:17;;;;;;;65.60;26.00;;;;;;;0.36;100.00;100865.88;5045220;28;20323;-74
2023/12/08 10:17:48;;;;;;;72.33;27.07;;;;;;;0.41;100.00;100867.69;5044437;28;20721;-74
2023/12/08 10:20:15;;;;;;;62.80;24.50;;;;;;;0.41;100.00;100852.13;5043686;28;20678;-74
2023/12/08 10:22:47;;;;;;;62.23;25.23;;;;;;;0.42;100.00;100846.69;5045629;28;20561;-73
2023/12/08 10:25:17;;;;;;;59.37;25.83;;;;;;;0.45;100.00;100847.97;5043345;28;20364;-73
2023/12/08 10:27:43;;;;;;;61.40;25.40;;;;;;;0.45;100.00;100833.19;5044483;28;20306;-74
2023/12/08 10:30:11;;;;;;;76.20;27.00;;;;;;;0.48;100.00;100837.88;5041510;28;20202;-74
2023/12/08 10:32:38;;;;;;;63.47;25.40;;;;;;;0.51;100.00;100829.59;5043956;28;20287;-74
2023/12/08 10:35:05;;;;;;;63.23;25.23;;;;;;;0.55;100.00;100830.66;5043599;28;20652;-74
2023/12/08 10:37:31;;;;;;;58.90;24.60;;;;;;;0.57;100.00;100828.56;5045701;28;20211;-73
2023/12/08 10:39:59;;;;;;;69.60;27.33;;;;;;;0.58;100.00;100809.34;5045466;28;20214;-74
2023/12/08 10:42:27;;;;;;;68.07;26.50;;;;;;;0.61;100.00;100793.25;5041431;28;20203;-74
2023/12/08 10:44:54;;;;;;;67.17;26.60;;;;;;;0.65;100.00;100783.13;5041833;28;20200;-74
2023/12/08 10:47:22;;;;;;;53.80;23.53;;;;;;;0.65;100.00;100781.31;5047173;28;20219;-74
2023/12/08 10:49:51;;;;;;;66.40;25.90;;;;;;;0.69;100.00;100779.00;5042753;28;20562;-74
2023/12/08 10:52:19;;;;;;;61.17;24.83;;;;;;;0.70;100.00;100768.34;5043646;28;20207;-74
2023/12/08 10:54:45;;;;;;;58.60;24.40;;;;;;;0.71;100.00;100762.09;5043021;28;20210;-74
2023/12/08 10:57:12;;;;;;;60.80;24.00;;;;;;;0.75;100.00;100760.56;5043602;28;20214;-74
2023/12/08 10:59:44;;;;;;;63.47;26.23;;;;;;;0.77;100.00;100752.50;5045466;28;20270;-74
2023/12/08 11:02:21;;;;;;;58.37;23.17;;;;;;;0.80;100.00;100762.38;5042598;28;20241;-74
2023/12/08 11:04:54;;;;;;;60.10;24.83;;;;;;;0.83;100.00;100760.06;5040454;28;20202;-74